sensor_id;sensor_type;location;lat;lon;timestamp;pressure;altitude;pressure_sealevel;temperature;humidity
57574;BME280;68988;49.000;21.242;2023-04-10T00:00:05;99181.56;;;23.12;31.42
57574;BME280;68988;49.000;21.242;2023-04-10T00:02:31;99179.22;;;23.16;31.42
57574;BME280;68988;49.000;21.242;2023-04-10T00:04:58;99175.72;;;23.15;31.18
57574;BME280;68988;49.000;21.242;2023-04-10T00:07:23;99179.72;;;23.13;31.38
57574;BME280;68988;49.000;21.242;2023-04-10T00:09:49;99178.63;;;23.14;31.37
57574;BME280;68988;49.000;21.242;2023-04-10T00:12:14;99175.97;;;23.14;31.44
57574;BME280;68988;49.000;21.242;2023-04-10T00:14:40;99178.13;;;23.17;31.51
57574;BME280;68988;49.000;21.242;2023-04-10T00:17:05;99172.25;;;23.15;31.43
57574;BME280;68988;49.000;21.242;2023-04-10T00:19:31;99175.72;;;23.15;31.24
57574;BME280;68988;49.000;21.242;2023-04-10T00:21:56;99169.56;;;23.15;31.42
57574;BME280;68988;49.000;21.242;2023-04-10T00:24:21;99166.63;;;23.16;31.37
57574;BME280;68988;49.000;21.242;2023-04-10T00:26:47;99168.75;;;23.14;31.55
57574;BME280;68988;49.000;21.242;2023-04-10T00:29:12;99162.09;;;23.17;31.41
57574;BME280;68988;49.000;21.242;2023-04-10T00:31:38;99162.59;;;23.14;31.63
57574;BME280;68988;49.000;21.242;2023-04-10T00:34:03;99158.06;;;23.14;31.29
57574;BME280;68988;49.000;21.242;2023-04-10T00:36:29;99164.22;;;23.15;31.43
57574;BME280;68988;49.000;21.242;2023-04-10T00:38:55;99166.63;;;23.16;31.42
57574;BME280;68988;49.000;21.242;2023-04-10T00:41:21;99161.53;;;23.15;31.55
57574;BME280;68988;49.000;21.242;2023-04-10T00:43:48;99162.03;;;23.12;31.51
57574;BME280;68988;49.000;21.242;2023-04-10T00:46:14;99156.44;;;23.13;31.44
57574;BME280;68988;49.000;21.242;2023-04-10T00:48:40;99161.78;;;23.13;31.44
57574;BME280;68988;49.000;21.242;2023-04-10T00:51:06;99153.50;;;23.15;31.58
57574;BME280;68988;49.000;21.242;2023-04-10T00:53:31;99160.97;;;23.13;31.49
57574;BME280;68988;49.000;21.242;2023-04-10T00:55:58;99158.31;;;23.13;31.47
57574;BME280;68988;49.000;21.242;2023-04-10T00:58:24;99149.22;;;23.14;31.56
57574;BME280;68988;49.000;21.242;2023-04-10T01:00:51;99155.38;;;23.14;31.51
57574;BME280;68988;49.000;21.242;2023-04-10T01:03:17;99154.81;;;23.12;31.49
57574;BME280;68988;49.000;21.242;2023-04-10T01:11:12;99150.28;;;23.13;31.18
57574;BME280;68988;49.000;21.242;2023-04-10T01:13:48;99150.03;;;23.14;31.55
57574;BME280;68988;49.000;21.242;2023-04-10T01:16:23;99150.53;;;23.11;31.41
57574;BME280;68988;49.000;21.242;2023-04-10T01:19:03;99154.25;;;23.10;31.66
57574;BME280;68988;49.000;21.242;2023-04-10T01:21:34;99142.75;;;23.10;31.40
57574;BME280;68988;49.000;21.242;2023-04-10T01:26:52;99140.38;;;23.13;31.46
57574;BME280;68988;49.000;21.242;2023-04-10T01:29:22;99147.28;;;23.09;31.56
57574;BME280;68988;49.000;21.242;2023-04-10T01:31:54;99143.81;;;23.09;31.35
57574;BME280;68988;49.000;21.242;2023-04-10T01:34:24;99136.78;;;23.07;31.55
57574;BME280;68988;49.000;21.242;2023-04-10T01:36:54;99130.97;;;23.11;31.41
57574;BME280;68988;49.000;21.242;2023-04-10T01:39:23;99135.78;;;23.09;31.67
57574;BME280;68988;49.000;21.242;2023-04-10T01:41:51;99135.53;;;23.10;31.36
57574;BME280;68988;49.000;21.242;2023-04-10T01:44:20;99138.22;;;23.10;31.33
57574;BME280;68988;49.000;21.242;2023-04-10T01:46:48;99136.78;;;23.07;31.47
57574;BME280;68988;49.000;21.242;2023-04-10T01:49:14;99132.53;;;23.06;31.38
57574;BME280;68988;49.000;21.242;2023-04-10T01:51:40;99126.94;;;23.08;31.55
57574;BME280;68988;49.000;21.242;2023-04-10T01:54:07;99134.72;;;23.10;31.49
57574;BME280;68988;49.000;21.242;2023-04-10T01:56:33;99134.72;;;23.10;31.33
57574;BME280;68988;49.000;21.242;2023-04-10T01:58:59;99124.25;;;23.08;31.53
57574;BME280;68988;49.000;21.242;2023-04-10T02:01:24;99130.19;;;23.10;31.51
57574;BME280;68988;49.000;21.242;2023-04-10T02:03:49;99128.56;;;23.09;31.56
57574;BME280;68988;49.000;21.242;2023-04-10T02:06:40;99131.31;;;23.14;31.48
57574;BME280;68988;49.000;21.242;2023-04-10T02:09:20;99127.81;;;23.14;31.39
57574;BME280;68988;49.000;21.242;2023-04-10T02:11:54;99136.31;;;23.11;31.51
57574;BME280;68988;49.000;21.242;2023-04-10T02:14:21;99131.69;;;23.06;31.66
57574;BME280;68988;49.000;21.242;2023-04-10T02:16:52;99127.50;;;23.10;31.54
57574;BME280;68988;49.000;21.242;2023-04-10T02:19:18;99124.59;;;23.12;31.53
57574;BME280;68988;49.000;21.242;2023-04-10T02:21:45;99124.25;;;23.08;31.38
57574;BME280;68988;49.000;21.242;2023-04-10T02:24:11;99118.44;;;23.11;31.43
57574;BME280;68988;49.000;21.242;2023-04-10T02:26:46;99114.38;;;23.09;31.35
57574;BME280;68988;49.000;21.242;2023-04-10T02:29:12;99122.41;;;23.09;31.40
57574;BME280;68988;49.000;21.242;2023-04-10T02:31:39;99120.75;;;23.07;31.41
57574;BME280;68988;49.000;21.242;2023-04-10T02:34:04;99106.03;;;23.05;31.34
57574;BME280;68988;49.000;21.242;2023-04-10T02:36:30;99118.31;;;23.06;31.54
57574;BME280;68988;49.000;21.242;2023-04-10T02:38:55;99113.22;;;23.04;31.35
57574;BME280;68988;49.000;21.242;2023-04-10T02:41:20;99119.72;;;23.09;31.48
57574;BME280;68988;49.000;21.242;2023-04-10T02:43:46;99109.25;;;23.07;31.34
57574;BME280;68988;49.000;21.242;2023-04-10T02:46:11;99105.31;;;23.10;31.51
57574;BME280;68988;49.000;21.242;2023-04-10T02:48:37;99110.88;;;23.08;31.45
57574;BME280;68988;49.000;21.242;2023-04-10T02:51:02;99099.84;;;23.04;31.52
57574;BME280;68988;49.000;21.242;2023-04-10T02:53:28;99103.44;;;23.10;31.34
57574;BME280;68988;49.000;21.242;2023-04-10T02:55:53;99098.34;;;23.09;31.38
57574;BME280;68988;49.000;21.242;2023-04-10T02:58:19;99102.03;;;23.07;31.31
57574;BME280;68988;49.000;21.242;2023-04-10T03:00:49;99098.34;;;23.09;31.25
57574;BME280;68988;49.000;21.242;2023-04-10T03:03:17;99101.81;;;23.09;31.54
57574;BME280;68988;49.000;21.242;2023-04-10T03:05:42;99092.41;;;23.06;31.38
57574;BME280;68988;49.000;21.242;2023-04-10T03:08:08;99097.75;;;23.06;31.47
57574;BME280;68988;49.000;21.242;2023-04-10T03:10:33;99090.31;;;23.09;31.46
57574;BME280;68988;49.000;21.242;2023-04-10T03:12:59;99094.81;;;23.08;31.51
57574;BME280;68988;49.000;21.242;2023-04-10T03:15:24;99094.81;;;23.08;31.55
57574;BME280;68988;49.000;21.242;2023-04-10T03:17:50;99095.88;;;23.07;31.29
57574;BME280;68988;49.000;21.242;2023-04-10T03:20:16;99099.34;;;23.07;31.63
57574;BME280;68988;49.000;21.242;2023-04-10T03:22:41;99096.69;;;23.07;31.47
57574;BME280;68988;49.000;21.242;2023-04-10T03:25:07;99101.00;;;23.09;31.53
57574;BME280;68988;49.000;21.242;2023-04-10T03:27:32;99102.03;;;23.07;31.50
57574;BME280;68988;49.000;21.242;2023-04-10T03:29:59;99099.97;;;23.10;31.35
57574;BME280;68988;49.000;21.242;2023-04-10T03:32:25;99102.03;;;23.07;31.28
57574;BME280;68988;49.000;21.242;2023-04-10T03:34:52;99087.56;;;23.03;31.43
57574;BME280;68988;49.000;21.242;2023-04-10T03:37:17;99098.56;;;23.07;31.68
57574;BME280;68988;49.000;21.242;2023-04-10T03:39:44;99099.34;;;23.07;31.60
57574;BME280;68988;49.000;21.242;2023-04-10T03:42:09;99099.59;;;23.06;31.59
57574;BME280;68988;49.000;21.242;2023-04-10T03:44:35;99095.31;;;23.05;31.35
57574;BME280;68988;49.000;21.242;2023-04-10T03:47:02;99094.75;;;23.03;31.35
57574;BME280;68988;49.000;21.242;2023-04-10T03:49:27;99092.41;;;23.06;31.36
57574;BME280;68988;49.000;21.242;2023-04-10T03:51:52;99088.59;;;23.02;31.56
57574;BME280;68988;49.000;21.242;2023-04-10T03:54:18;99083.78;;;23.04;31.50
57574;BME280;68988;49.000;21.242;2023-04-10T03:56:43;99089.16;;;23.04;31.43
57574;BME280;68988;49.000;21.242;2023-04-10T03:59:08;99093.44;;;23.05;31.57
57574;BME280;68988;49.000;21.242;2023-04-10T04:01:34;99099.34;;;23.07;31.39
57574;BME280;68988;49.000;21.242;2023-04-10T04:03:59;99094.50;;;23.04;31.60
57574;BME280;68988;49.000;21.242;2023-04-10T04:06:25;99094.00;;;23.07;31.63
57574;BME280;68988;49.000;21.242;2023-04-10T04:08:51;99092.97;;;23.09;31.51
57574;BME280;68988;49.000;21.242;2023-04-10T04:11:16;99086.47;;;23.04;31.75
57574;BME280;68988;49.000;21.242;2023-04-10T04:13:42;99095.06;;;23.06;31.51
57574;BME280;68988;49.000;21.242;2023-04-10T04:16:08;99096.13;;;23.05;31.57
57574;BME280;68988;49.000;21.242;2023-04-10T04:18:34;99086.91;;;22.96;31.37
57574;BME280;68988;49.000;21.242;2023-04-10T04:20:59;99102.22;;;23.01;31.56
57574;BME280;68988;49.000;21.242;2023-04-10T04:23:25;99104.91;;;23.01;31.50
57574;BME280;68988;49.000;21.242;2023-04-10T04:25:51;99108.88;;;22.98;31.69
57574;BME280;68988;49.000;21.242;2023-04-10T04:28:18;99107.78;;;22.94;31.74
57574;BME280;68988;49.000;21.242;2023-04-10T04:30:43;99107.78;;;22.94;31.81
57574;BME280;68988;49.000;21.242;2023-04-10T04:33:09;99112.03;;;22.95;31.74
57574;BME280;68988;49.000;21.242;2023-04-10T04:35:34;99106.69;;;22.95;31.70
57574;BME280;68988;49.000;21.242;2023-04-10T04:38:00;99110.75;;;22.98;31.77
57574;BME280;68988;49.000;21.242;2023-04-10T04:40:25;99116.91;;;22.98;31.86
57574;BME280;68988;49.000;21.242;2023-04-10T04:42:51;99107.81;;;22.99;31.71
57574;BME280;68988;49.000;21.242;2023-04-10T04:45:16;99108.88;;;22.98;31.90
57574;BME280;68988;49.000;21.242;2023-04-10T04:47:41;99108.13;;;23.03;31.72
57574;BME280;68988;49.000;21.242;2023-04-10T04:50:07;99111.63;;;23.03;31.72
57574;BME280;68988;49.000;21.242;2023-04-10T04:52:33;99114.06;;;23.05;31.68
57574;BME280;68988;49.000;21.242;2023-04-10T04:54:59;99126.09;;;23.07;31.69
57574;BME280;68988;49.000;21.242;2023-04-10T04:57:25;99123.19;;;23.09;31.67
57574;BME280;68988;49.000;21.242;2023-04-10T04:59:50;99122.72;;;23.12;31.56
57574;BME280;68988;49.000;21.242;2023-04-10T05:02:16;99124.59;;;23.12;31.78
57574;BME280;68988;49.000;21.242;2023-04-10T05:04:43;99128.63;;;23.14;31.62
57574;BME280;68988;49.000;21.242;2023-04-10T05:07:08;99126.75;;;23.15;31.87
57574;BME280;68988;49.000;21.242;2023-04-10T05:09:34;99119.78;;;23.14;31.65
57574;BME280;68988;49.000;21.242;2023-04-10T05:12:00;99129.97;;;23.17;31.79
57574;BME280;68988;49.000;21.242;2023-04-10T05:14:25;99138.59;;;23.19;31.71
57574;BME280;68988;49.000;21.242;2023-04-10T05:16:51;99150.88;;;23.20;31.80
57574;BME280;68988;49.000;21.242;2023-04-10T05:19:16;99147.16;;;23.21;31.45
57574;BME280;68988;49.000;21.242;2023-04-10T05:21:42;99150.88;;;23.20;31.85
57574;BME280;68988;49.000;21.242;2023-04-10T05:24:07;99153.00;;;23.18;31.64
57574;BME280;68988;49.000;21.242;2023-04-10T05:26:33;99162.41;;;23.20;31.63
57574;BME280;68988;49.000;21.242;2023-04-10T05:28:58;99162.41;;;23.20;31.65
57574;BME280;68988;49.000;21.242;2023-04-10T05:31:24;99156.72;;;23.17;31.62
57574;BME280;68988;49.000;21.242;2023-04-10T05:33:49;99149.28;;;23.19;31.66
57574;BME280;68988;49.000;21.242;2023-04-10T05:36:15;99140.19;;;23.20;31.54
57574;BME280;68988;49.000;21.242;2023-04-10T05:38:42;99137.50;;;23.20;31.75
57574;BME280;68988;49.000;21.242;2023-04-10T05:41:08;99132.16;;;23.20;31.58
57574;BME280;68988;49.000;21.242;2023-04-10T05:43:33;99130.31;;;23.20;31.90
57574;BME280;68988;49.000;21.242;2023-04-10T05:45:58;99134.84;;;23.20;31.65
57574;BME280;68988;49.000;21.242;2023-04-10T05:48:24;99130.31;;;23.20;31.63
57574;BME280;68988;49.000;21.242;2023-04-10T05:50:51;99138.59;;;23.19;31.71
57574;BME280;68988;49.000;21.242;2023-04-10T05:53:18;99136.72;;;23.19;31.54
57574;BME280;68988;49.000;21.242;2023-04-10T05:55:43;99133.25;;;23.19;31.69
57574;BME280;68988;49.000;21.242;2023-04-10T05:58:09;99124.13;;;23.20;31.81
57574;BME280;68988;49.000;21.242;2023-04-10T06:00:34;99129.47;;;23.20;31.72
57574;BME280;68988;49.000;21.242;2023-04-10T06:03:00;99126.81;;;23.20;31.66
57574;BME280;68988;49.000;21.242;2023-04-10T06:05:26;99125.75;;;23.21;31.64
57574;BME280;68988;49.000;21.242;2023-04-10T06:07:51;99124.72;;;23.22;31.52
57574;BME280;68988;49.000;21.242;2023-04-10T06:10:17;99128.44;;;23.21;31.53
57574;BME280;68988;49.000;21.242;2023-04-10T06:12:42;99127.88;;;23.19;31.63
57574;BME280;68988;49.000;21.242;2023-04-10T06:15:08;99129.47;;;23.20;31.63
57574;BME280;68988;49.000;21.242;2023-04-10T06:17:33;99131.91;;;23.21;31.73
57574;BME280;68988;49.000;21.242;2023-04-10T06:20:01;99123.63;;;23.23;31.51
57574;BME280;68988;49.000;21.242;2023-04-10T06:22:28;99128.69;;;23.19;31.54
57574;BME280;68988;49.000;21.242;2023-04-10T06:24:55;99126.25;;;23.18;31.64
57574;BME280;68988;49.000;21.242;2023-04-10T06:27:20;99127.88;;;23.19;31.67
57574;BME280;68988;49.000;21.242;2023-04-10T06:29:45;99127.31;;;23.17;31.68
57574;BME280;68988;49.000;21.242;2023-04-10T06:32:11;99124.63;;;23.17;31.60
57574;BME280;68988;49.000;21.242;2023-04-10T06:34:36;99125.72;;;23.16;31.55
57574;BME280;68988;49.000;21.242;2023-04-10T06:37:01;99123.03;;;23.16;31.71
57574;BME280;68988;49.000;21.242;2023-04-10T06:39:27;99123.03;;;23.16;31.77
57574;BME280;68988;49.000;21.242;2023-04-10T06:41:52;99124.63;;;23.17;31.74
57574;BME280;68988;49.000;21.242;2023-04-10T06:44:18;99120.09;;;23.17;31.68
57574;BME280;68988;49.000;21.242;2023-04-10T06:46:43;99123.34;;;23.19;31.74
57574;BME280;68988;49.000;21.242;2023-04-10T06:49:08;99122.22;;;23.15;31.55
57574;BME280;68988;49.000;21.242;2023-04-10T06:51:34;99123.34;;;23.19;31.53
57574;BME280;68988;49.000;21.242;2023-04-10T06:53:59;99127.88;;;23.19;31.49
57574;BME280;68988;49.000;21.242;2023-04-10T06:56:25;99130.31;;;23.20;31.46
57574;BME280;68988;49.000;21.242;2023-04-10T06:58:51;99123.34;;;23.19;31.60
57574;BME280;68988;49.000;21.242;2023-04-10T07:01:16;99125.75;;;23.21;31.64
57574;BME280;68988;49.000;21.242;2023-04-10T07:03:41;99123.34;;;23.19;31.61
57574;BME280;68988;49.000;21.242;2023-04-10T07:06:09;99126.81;;;23.20;31.50
57574;BME280;68988;49.000;21.242;2023-04-10T07:08:34;99126.81;;;23.20;31.79
57574;BME280;68988;49.000;21.242;2023-04-10T07:11:00;99134.84;;;23.20;31.73
57574;BME280;68988;49.000;21.242;2023-04-10T07:13:25;99131.59;;;23.18;31.78
57574;BME280;68988;49.000;21.242;2023-04-10T07:15:51;99125.47;;;23.17;31.73
57574;BME280;68988;49.000;21.242;2023-04-10T07:18:16;99120.34;;;23.16;31.68
57574;BME280;68988;49.000;21.242;2023-04-10T07:20:41;99124.13;;;23.20;31.63
57574;BME280;68988;49.000;21.242;2023-04-10T07:23:07;99122.53;;;23.19;31.56
57574;BME280;68988;49.000;21.242;2023-04-10T07:25:32;99127.63;;;23.20;31.72
57574;BME280;68988;49.000;21.242;2023-04-10T07:27:58;99127.63;;;23.20;31.55
57574;BME280;68988;49.000;21.242;2023-04-10T07:30:23;99124.97;;;23.20;31.74
57574;BME280;68988;49.000;21.242;2023-04-10T07:32:49;99134.34;;;23.23;31.66
57574;BME280;68988;49.000;21.242;2023-04-10T07:35:14;99132.75;;;23.22;31.61
57574;BME280;68988;49.000;21.242;2023-04-10T07:37:39;99125.75;;;23.21;31.61
57574;BME280;68988;49.000;21.242;2023-04-10T07:40:07;99132.50;;;23.23;31.59
57574;BME280;68988;49.000;21.242;2023-04-10T07:42:32;99130.59;;;23.24;31.61
57574;BME280;68988;49.000;21.242;2023-04-10T07:44:58;99132.50;;;23.23;31.79
57574;BME280;68988;49.000;21.242;2023-04-10T07:47:23;99124.72;;;23.22;31.48
57574;BME280;68988;49.000;21.242;2023-04-10T07:49:49;99131.16;;;23.26;31.63
57574;BME280;68988;49.000;21.242;2023-04-10T07:52:14;99122.59;;;23.24;31.68
57574;BME280;68988;49.000;21.242;2023-04-10T07:54:40;99122.34;;;23.26;31.86
57574;BME280;68988;49.000;21.242;2023-04-10T07:57:05;99122.88;;;23.28;31.72
57574;BME280;68988;49.000;21.242;2023-04-10T07:59:30;99119.16;;;23.29;31.51
57574;BME280;68988;49.000;21.242;2023-04-10T08:01:56;99121.03;;;23.28;31.47
57574;BME280;68988;49.000;21.242;2023-04-10T08:04:21;99118.34;;;23.28;31.57
57574;BME280;68988;49.000;21.242;2023-04-10T08:06:47;99117.28;;;23.29;31.57
57574;BME280;68988;49.000;21.242;2023-04-10T08:09:14;99109.50;;;23.28;31.60
57574;BME280;68988;49.000;21.242;2023-04-10T08:11:39;99106.91;;;23.33;31.58
57574;BME280;68988;49.000;21.242;2023-04-10T08:14:05;99105.53;;;23.30;31.56
57574;BME280;68988;49.000;21.242;2023-04-10T08:16:32;99110.63;;;23.32;31.64
57574;BME280;68988;49.000;21.242;2023-04-10T08:18:59;99105.28;;;23.32;31.57
57574;BME280;68988;49.000;21.242;2023-04-10T08:21:26;99105.81;;;23.34;31.47
57574;BME280;68988;49.000;21.242;2023-04-10T08:23:54;99107.19;;;23.36;31.58
57574;BME280;68988;49.000;21.242;2023-04-10T08:26:19;99106.66;;;23.34;31.53
57574;BME280;68988;49.000;21.242;2023-04-10T08:28:49;99104.53;;;23.36;31.56
57574;BME280;68988;49.000;21.242;2023-04-10T08:31:19;99101.84;;;23.36;31.58
57574;BME280;68988;49.000;21.242;2023-04-10T08:33:44;99101.84;;;23.36;31.68
57574;BME280;68988;49.000;21.242;2023-04-10T08:36:10;99101.59;;;23.38;31.65
57574;BME280;68988;49.000;21.242;2023-04-10T08:38:46;99096.53;;;23.41;31.52
57574;BME280;68988;49.000;21.242;2023-04-10T08:41:20;99085.81;;;23.41;31.61
57574;BME280;68988;49.000;21.242;2023-04-10T08:43:46;99086.34;;;23.38;31.55
57574;BME280;68988;49.000;21.242;2023-04-10T08:46:12;99086.06;;;23.40;31.60
57574;BME280;68988;49.000;21.242;2023-04-10T08:51:18;99077.25;;;23.39;31.54
57574;BME280;68988;49.000;21.242;2023-04-10T08:53:45;99076.19;;;23.40;31.46
57574;BME280;68988;49.000;21.242;2023-04-10T08:56:12;99082.34;;;23.41;31.55
57574;BME280;68988;49.000;21.242;2023-04-10T08:58:40;99082.34;;;23.41;31.51
57574;BME280;68988;49.000;21.242;2023-04-10T09:01:08;99088.81;;;23.45;31.43
57574;BME280;68988;49.000;21.242;2023-04-10T09:03:33;99080.53;;;23.47;31.39
57574;BME280;68988;49.000;21.242;2023-04-10T09:06:03;99082.13;;;23.48;31.55
57574;BME280;68988;49.000;21.242;2023-04-10T09:08:29;99078.41;;;23.49;31.52
57574;BME280;68988;49.000;21.242;2023-04-10T09:10:54;99074.13;;;23.48;31.61
57574;BME280;68988;49.000;21.242;2023-04-10T09:13:41;99073.94;;;23.54;31.41
57574;BME280;68988;49.000;21.242;2023-04-10T09:16:07;99070.38;;;23.49;31.41
57574;BME280;68988;49.000;21.242;2023-04-10T09:18:44;99063.47;;;23.53;31.40
57574;BME280;68988;49.000;21.242;2023-04-10T09:21:12;99070.13;;;23.50;31.36
57574;BME280;68988;49.000;21.242;2023-04-10T09:23:37;99066.41;;;23.51;31.44
57574;BME280;68988;49.000;21.242;2023-04-10T09:26:32;99065.13;;;23.59;31.45
57574;BME280;68988;49.000;21.242;2023-04-10T09:29:05;99066.69;;;23.55;31.43
57574;BME280;68988;49.000;21.242;2023-04-10T09:31:34;99062.13;;;23.55;31.40
57574;BME280;68988;49.000;21.242;2023-04-10T09:34:16;99057.34;;;23.57;31.48
57574;BME280;68988;49.000;21.242;2023-04-10T09:36:56;99054.16;;;23.60;31.39
57574;BME280;68988;49.000;21.242;2023-04-10T09:39:33;99045.06;;;23.62;31.23
57574;BME280;68988;49.000;21.242;2023-04-10T09:41:59;99044.78;;;23.58;31.26
57574;BME280;68988;49.000;21.242;2023-04-10T09:44:31;99047.72;;;23.62;31.31
57574;BME280;68988;49.000;21.242;2023-04-10T09:49:44;99037.38;;;23.70;31.12
57574;BME280;68988;49.000;21.242;2023-04-10T09:52:18;99037.28;;;23.60;31.66
57574;BME280;68988;49.000;21.242;2023-04-10T09:54:44;99025.50;;;23.56;31.43
57574;BME280;68988;49.000;21.242;2023-04-10T09:57:12;99028.16;;;23.56;31.39
57574;BME280;68988;49.000;21.242;2023-04-10T09:59:39;99029.75;;;23.57;31.53
57574;BME280;68988;49.000;21.242;2023-04-10T10:02:05;99022.56;;;23.57;31.58
57574;BME280;68988;49.000;21.242;2023-04-10T10:04:32;99021.22;;;23.60;31.47
57574;BME280;68988;49.000;21.242;2023-04-10T10:06:57;99009.72;;;23.59;31.41
57574;BME280;68988;49.000;21.242;2023-04-10T10:09:23;99013.19;;;23.60;31.28
57574;BME280;68988;49.000;21.242;2023-04-10T10:11:50;99011.34;;;23.60;31.38
57574;BME280;68988;49.000;21.242;2023-04-10T10:14:17;99014.81;;;23.61;31.32
57574;BME280;68988;49.000;21.242;2023-04-10T10:16:48;99011.59;;;23.59;31.53
57574;BME280;68988;49.000;21.242;2023-04-10T10:19:40;99011.13;;;23.67;31.36
57574;BME280;68988;49.000;21.242;2023-04-10T10:22:07;99019.63;;;23.59;31.54
57574;BME280;68988;49.000;21.242;2023-04-10T10:24:35;99015.06;;;23.59;31.50
57574;BME280;68988;49.000;21.242;2023-04-10T10:27:03;99016.69;;;23.60;31.46
57574;BME280;68988;49.000;21.242;2023-04-10T10:29:31;99015.88;;;23.60;31.58
57574;BME280;68988;49.000;21.242;2023-04-10T10:31:59;99019.63;;;23.59;31.56
57574;BME280;68988;49.000;21.242;2023-04-10T10:34:27;99021.72;;;23.57;31.57
57574;BME280;68988;49.000;21.242;2023-04-10T10:36:53;99020.69;;;23.58;31.65
57574;BME280;68988;49.000;21.242;2023-04-10T10:39:31;99024.97;;;23.59;31.52
57574;BME280;68988;49.000;21.242;2023-04-10T10:47:05;99024.72;;;23.60;31.38
57574;BME280;68988;49.000;21.242;2023-04-10T10:52:38;99012.13;;;23.61;31.41
57574;BME280;68988;49.000;21.242;2023-04-10T10:58:02;99019.06;;;23.57;31.57
57574;BME280;68988;49.000;21.242;2023-04-10T11:03:27;99010.22;;;23.56;31.53
57574;BME280;68988;49.000;21.242;2023-04-10T11:13:36;99003.56;;;23.59;31.53
57574;BME280;68988;49.000;21.242;2023-04-10T11:16:04;99007.84;;;23.60;31.58
57574;BME280;68988;49.000;21.242;2023-04-10T11:21:14;99013.19;;;23.60;31.56
57574;BME280;68988;49.000;21.242;2023-04-10T11:31:37;99007.84;;;23.60;31.44
57574;BME280;68988;49.000;21.242;2023-04-10T11:34:05;99008.91;;;23.59;31.65
57574;BME280;68988;49.000;21.242;2023-04-10T11:36:33;98999.81;;;23.60;31.57
57574;BME280;68988;49.000;21.242;2023-04-10T11:39:06;99004.34;;;23.59;31.63
57574;BME280;68988;49.000;21.242;2023-04-10T11:41:41;99000.06;;;23.58;31.53
57574;BME280;68988;49.000;21.242;2023-04-10T11:44:09;99000.38;;;23.62;31.59
57574;BME280;68988;49.000;21.242;2023-04-10T11:46:39;98997.97;;;23.66;31.24
57574;BME280;68988;49.000;21.242;2023-04-10T11:49:06;98988.59;;;23.63;31.53
57574;BME280;68988;49.000;21.242;2023-04-10T11:51:34;98992.34;;;23.62;31.52
57574;BME280;68988;49.000;21.242;2023-04-10T11:54:11;98992.38;;;23.67;31.50
57574;BME280;68988;49.000;21.242;2023-04-10T11:56:38;98983.22;;;23.63;31.39
57574;BME280;68988;49.000;21.242;2023-04-10T11:59:04;98976.28;;;23.62;31.43
57574;BME280;68988;49.000;21.242;2023-04-10T12:01:35;98976.56;;;23.66;31.32
57574;BME280;68988;49.000;21.242;2023-04-10T12:04:01;98976.03;;;23.64;31.50
57574;BME280;68988;49.000;21.242;2023-04-10T12:06:27;98969.59;;;23.65;31.50
57574;BME280;68988;49.000;21.242;2023-04-10T12:08:53;98960.75;;;23.64;31.50
57574;BME280;68988;49.000;21.242;2023-04-10T12:11:20;98955.69;;;23.68;31.37
57574;BME280;68988;49.000;21.242;2023-04-10T12:13:47;98956.78;;;23.72;31.40
57574;BME280;68988;49.000;21.242;2023-04-10T12:16:12;98957.06;;;23.70;31.40
57574;BME280;68988;49.000;21.242;2023-04-10T12:18:38;98954.38;;;23.70;31.24
57574;BME280;68988;49.000;21.242;2023-04-10T12:21:04;98950.84;;;23.65;31.41
57574;BME280;68988;49.000;21.242;2023-04-10T12:23:30;98957.84;;;23.71;31.31
57574;BME280;68988;49.000;21.242;2023-04-10T12:26:16;98942.13;;;23.80;31.23
57574;BME280;68988;49.000;21.242;2023-04-10T12:28:52;98944.50;;;23.76;31.41
57574;BME280;68988;49.000;21.242;2023-04-10T12:31:26;98946.88;;;23.72;31.40
57574;BME280;68988;49.000;21.242;2023-04-10T12:33:52;98936.16;;;23.67;31.44
57574;BME280;68988;49.000;21.242;2023-04-10T12:36:25;98933.72;;;23.66;31.49
57574;BME280;68988;49.000;21.242;2023-04-10T12:38:53;98934.84;;;23.70;31.47
57574;BME280;68988;49.000;21.242;2023-04-10T12:41:27;98935.13;;;23.73;31.36
57574;BME280;68988;49.000;21.242;2023-04-10T12:44:09;98920.69;;;23.74;31.34
57574;BME280;68988;49.000;21.242;2023-04-10T12:46:35;98915.84;;;23.71;31.50
57574;BME280;68988;49.000;21.242;2023-04-10T12:51:41;98901.88;;;23.69;31.50
57574;BME280;68988;49.000;21.242;2023-04-10T12:54:07;98890.63;;;23.67;31.44
57574;BME280;68988;49.000;21.242;2023-04-10T12:56:43;98891.75;;;23.71;31.41
57574;BME280;68988;49.000;21.242;2023-04-10T12:59:09;98887.97;;;23.67;31.44
57574;BME280;68988;49.000;21.242;2023-04-10T13:01:37;98893.84;;;23.69;31.46
57574;BME280;68988;49.000;21.242;2023-04-10T13:04:02;98878.56;;;23.65;31.54
57574;BME280;68988;49.000;21.242;2023-04-10T13:06:28;98881.25;;;23.65;31.50
57574;BME280;68988;49.000;21.242;2023-04-10T13:08:53;98880.19;;;23.66;31.52
57574;BME280;68988;49.000;21.242;2023-04-10T13:11:20;98880.44;;;23.64;31.54
57574;BME280;68988;49.000;21.242;2023-04-10T13:13:47;98878.31;;;23.66;31.41
57574;BME280;68988;49.000;21.242;2023-04-10T13:16:12;98874.56;;;23.67;31.48
57574;BME280;68988;49.000;21.242;2023-04-10T13:18:38;98874.03;;;23.65;31.37
57574;BME280;68988;49.000;21.242;2023-04-10T13:21:03;98874.56;;;23.67;31.47
57574;BME280;68988;49.000;21.242;2023-04-10T13:23:29;98864.91;;;23.61;31.53
57574;BME280;68988;49.000;21.242;2023-04-10T13:25:54;98868.41;;;23.67;31.36
57574;BME280;68988;49.000;21.242;2023-04-10T13:28:21;98875.09;;;23.69;31.40
57574;BME280;68988;49.000;21.242;2023-04-10T13:30:46;98868.41;;;23.67;31.36
57574;BME280;68988;49.000;21.242;2023-04-10T13:33:12;98869.75;;;23.64;31.49
57574;BME280;68988;49.000;21.242;2023-04-10T13:35:37;98866.81;;;23.66;31.51
57574;BME280;68988;49.000;21.242;2023-04-10T13:38:04;98868.13;;;23.63;31.56